createdAt,value
2019-01-18T00:02:58.254Z,1.97
2019-01-18T00:08:02.964Z,2.80
2019-01-18T00:13:07.662Z,2.42
2019-01-18T00:18:12.561Z,2.67
2019-01-18T00:23:17.312Z,2.50
2019-01-18T00:28:22.209Z,2.57
2019-01-18T00:33:27.196Z,2.47
2019-01-18T00:38:32.007Z,1.83
2019-01-18T00:43:36.771Z,1.73
2019-01-18T00:48:41.435Z,1.70
2019-01-18T00:53:46.137Z,1.70
2019-01-18T00:58:50.821Z,1.33
2019-01-18T01:03:55.563Z,1.40
2019-01-18T01:09:00.325Z,1.40
2019-01-18T01:14:05.133Z,1.33
2019-01-18T01:19:09.793Z,1.22
2019-01-18T01:24:14.689Z,1.10
2019-01-18T01:29:19.400Z,1.05
2019-01-18T01:34:24.083Z,1.00
2019-01-18T01:39:28.760Z,0.90
2019-01-18T01:44:33.535Z,0.80
2019-01-18T01:49:38.227Z,0.70
2019-01-18T01:54:43.111Z,1.00
2019-01-18T01:59:49.918Z,0.83
2019-01-18T02:04:54.319Z,1.00
2019-01-18T02:09:59.036Z,0.90
2019-01-18T02:15:05.390Z,0.83
2019-01-18T02:20:13.064Z,1.00
2019-01-18T02:25:17.988Z,0.90
2019-01-18T02:30:31.325Z,1.00
2019-01-18T02:35:36.164Z,1.20
2019-01-18T02:40:40.786Z,0.90
2019-01-18T02:45:45.769Z,0.80
2019-01-18T02:50:50.821Z,0.63
2019-01-18T02:55:55.499Z,1.07
2019-01-18T03:01:00.156Z,0.80
2019-01-18T03:06:04.955Z,0.90
2019-01-18T03:11:09.621Z,1.00
2019-01-18T03:16:14.365Z,0.88
2019-01-18T03:21:19.362Z,0.82
2019-01-18T03:26:24.011Z,1.10
2019-01-18T03:31:28.751Z,1.17
2019-01-18T03:36:33.412Z,1.10
2019-01-18T03:41:39.307Z,1.33
2019-01-18T03:46:43.986Z,1.33
2019-01-18T03:51:48.655Z,1.00
2019-01-18T03:56:53.385Z,1.43
2019-01-18T04:01:58.060Z,0.93
2019-01-18T04:07:02.718Z,1.03
2019-01-18T04:12:07.451Z,1.20
2019-01-18T04:17:12.217Z,1.10
2019-01-18T04:22:16.881Z,1.20
2019-01-18T04:27:21.549Z,1.20
2019-01-18T04:32:26.296Z,1.10
2019-01-18T04:37:30.972Z,1.07
2019-01-18T04:42:35.631Z,1.20
2019-01-18T04:47:40.565Z,1.87
2019-01-18T04:52:45.984Z,1.07
2019-01-18T04:57:50.867Z,1.10
2019-01-18T05:02:55.724Z,1.30
2019-01-18T05:08:00.731Z,1.30
2019-01-18T05:13:05.534Z,1.10
2019-01-18T05:18:10.274Z,1.20
2019-01-18T05:23:15.000Z,1.23
2019-01-18T05:28:19.660Z,1.10
2019-01-18T05:33:24.310Z,1.10
2019-01-18T05:38:28.960Z,1.47
2019-01-18T05:43:33.624Z,0.90
2019-01-18T05:48:38.300Z,1.10
2019-01-18T05:53:43.288Z,0.90
2019-01-18T05:58:47.948Z,0.77
2019-01-18T06:03:52.659Z,1.00
2019-01-18T06:08:58.444Z,0.90
2019-01-18T06:14:03.191Z,0.90
2019-01-18T06:19:08.056Z,0.80
2019-01-18T06:24:12.796Z,0.80
2019-01-18T06:29:17.543Z,0.80
2019-01-18T06:34:22.461Z,0.87
2019-01-18T06:39:27.202Z,1.07
2019-01-18T06:44:31.889Z,0.90
2019-01-18T06:49:36.675Z,0.80
2019-01-18T06:54:41.525Z,0.90
2019-01-18T06:59:46.391Z,0.90
2019-01-18T07:04:51.063Z,0.80
2019-01-18T07:09:55.841Z,1.00
2019-01-18T07:15:00.617Z,1.07
2019-01-18T07:20:06.255Z,1.00
2019-01-18T07:25:19.355Z,1.00
2019-01-18T07:30:32.331Z,1.40
2019-01-18T07:35:37.147Z,0.80
2019-01-18T07:40:41.975Z,1.10
2019-01-18T07:45:46.833Z,1.07
2019-01-18T07:50:51.709Z,0.80
2019-01-18T07:55:56.413Z,1.03
2019-01-18T08:01:01.147Z,0.80
2019-01-18T08:06:07.229Z,0.97
2019-01-18T08:11:12.200Z,0.80
2019-01-18T08:16:16.982Z,0.68
2019-01-18T08:21:21.692Z,0.80
2019-01-18T08:26:26.392Z,1.00
2019-01-18T08:31:31.123Z,1.00
2019-01-18T08:36:35.896Z,1.10
2019-01-18T08:41:40.600Z,1.10
2019-01-18T08:46:45.337Z,1.20
2019-01-18T08:51:49.999Z,1.23
2019-01-18T08:56:54.678Z,1.10
2019-01-18T09:01:59.340Z,1.20
2019-01-18T09:07:04.488Z,1.13
2019-01-18T09:12:09.176Z,1.27
2019-01-18T09:17:13.820Z,1.40
2019-01-18T09:22:18.490Z,1.50
2019-01-18T09:27:23.182Z,1.53
2019-01-18T09:32:27.880Z,1.33
2019-01-18T09:37:32.762Z,1.30
2019-01-18T09:42:37.468Z,1.50
2019-01-18T09:47:42.532Z,1.27
2019-01-18T09:52:47.535Z,1.10
2019-01-18T09:57:53.355Z,1.37
2019-01-18T10:02:58.861Z,1.47
2019-01-18T10:08:06.477Z,1.30
2019-01-18T10:13:11.161Z,1.30
2019-01-18T10:18:16.311Z,1.53
2019-01-18T10:23:21.115Z,1.40
2019-01-18T10:28:27.849Z,1.50
2019-01-18T10:33:32.604Z,1.33
2019-01-18T10:38:37.276Z,1.20
2019-01-18T10:43:42.012Z,1.33
2019-01-18T10:48:46.675Z,1.60
2019-01-18T10:53:51.350Z,1.33
2019-01-18T10:59:07.779Z,1.40
2019-01-18T11:04:12.494Z,1.30
2019-01-18T11:09:17.277Z,1.57
2019-01-18T11:14:21.967Z,1.30
2019-01-18T11:19:26.738Z,1.70
2019-01-18T11:24:31.403Z,1.23
2019-01-18T11:29:36.113Z,1.40
2019-01-18T11:34:40.793Z,1.10
2019-01-18T11:39:45.475Z,1.50
2019-01-18T11:44:50.242Z,1.63
2019-01-18T11:49:54.996Z,1.40
2019-01-18T11:54:59.674Z,1.20
2019-01-18T12:00:07.406Z,1.02
2019-01-18T12:05:13.186Z,1.40
2019-01-18T12:10:23.258Z,1.50
2019-01-18T12:15:29.095Z,1.30
2019-01-18T12:20:35.748Z,1.30
2019-01-18T12:25:40.536Z,1.30
2019-01-18T12:30:45.284Z,1.40
2019-01-18T12:35:50.229Z,1.53
2019-01-18T12:40:54.917Z,2.00
2019-01-18T12:45:59.599Z,1.30
2019-01-18T12:51:04.816Z,1.80
2019-01-18T12:56:09.576Z,1.50
2019-01-18T13:01:14.342Z,1.85
2019-01-18T13:06:19.168Z,1.27
2019-01-18T13:11:23.981Z,1.30
2019-01-18T13:16:32.673Z,1.20
2019-01-18T13:21:37.334Z,1.20
2019-01-18T13:26:41.993Z,1.50
2019-01-18T13:31:46.810Z,1.40
2019-01-18T13:36:51.557Z,1.27
2019-01-18T13:41:56.264Z,1.30
2019-01-18T13:47:01.065Z,1.30
2019-01-18T13:52:06.013Z,1.60
2019-01-18T13:57:12.267Z,1.30
2019-01-18T14:02:17.127Z,1.00
2019-01-18T14:07:21.890Z,1.63
2019-01-18T14:12:26.665Z,1.20
2019-01-18T14:17:31.336Z,1.40
2019-01-18T14:22:36.185Z,1.50
2019-01-18T14:27:40.995Z,1.20
2019-01-18T14:32:45.678Z,1.47
2019-01-18T14:37:50.925Z,1.53
2019-01-18T14:42:55.648Z,2.00
2019-01-18T14:48:00.711Z,1.67
2019-01-18T14:53:05.673Z,1.50
2019-01-18T14:58:12.881Z,1.37
2019-01-18T15:03:17.781Z,1.53
2019-01-18T15:08:24.356Z,1.47
2019-01-18T15:13:28.828Z,1.90
2019-01-18T15:18:33.567Z,1.90
2019-01-18T15:23:38.312Z,1.80
2019-01-18T15:28:42.943Z,1.70
2019-01-18T15:33:47.780Z,2.00
2019-01-18T15:38:53.460Z,1.80
2019-01-18T15:43:58.179Z,2.00
2019-01-18T15:49:02.924Z,2.00
2019-01-18T15:54:08.450Z,2.10
2019-01-18T15:59:13.151Z,2.12
2019-01-18T16:04:17.916Z,2.40
2019-01-18T16:09:22.883Z,2.00
2019-01-18T16:14:27.581Z,2.60
2019-01-18T16:19:32.293Z,2.23
2019-01-18T16:24:37.118Z,2.33
2019-01-18T16:29:41.791Z,2.50
2019-01-18T16:34:46.767Z,2.30
2019-01-18T16:39:51.455Z,2.07
2019-01-18T16:44:56.255Z,2.53
2019-01-18T16:50:01.190Z,2.87
2019-01-18T16:55:06.890Z,2.30
2019-01-18T17:00:23.701Z,2.20
2019-01-18T17:05:28.717Z,2.60
2019-01-18T17:10:33.389Z,2.77
2019-01-18T17:15:38.451Z,2.17
2019-01-18T17:20:44.116Z,2.30
2019-01-18T17:25:48.771Z,2.23
2019-01-18T17:30:53.436Z,2.57
2019-01-18T17:36:09.143Z,2.37
2019-01-18T17:41:32.019Z,3.10
2019-01-18T17:47:27.910Z,2.87
2019-01-18T17:53:28.323Z,2.80
2019-01-18T17:59:07.999Z,2.60
2019-01-18T18:04:53.950Z,2.80
2019-01-18T18:10:41.724Z,2.80
2019-01-18T18:16:10.068Z,2.87
2019-01-18T18:21:35.834Z,2.37
2019-01-18T18:27:23.669Z,2.73
2019-01-18T18:33:07.640Z,3.07
2019-01-18T18:38:56.404Z,2.23
2019-01-18T18:44:44.978Z,2.43
2019-01-18T18:50:43.468Z,2.70
2019-01-18T18:56:08.734Z,2.57
2019-01-18T19:01:46.776Z,2.52
2019-01-18T19:07:08.837Z,2.77
2019-01-18T19:12:42.270Z,3.20
2019-01-18T19:18:25.138Z,3.10
2019-01-18T19:24:05.196Z,3.33
2019-01-18T19:29:29.745Z,2.70
2019-01-18T19:34:51.472Z,2.83
2019-01-18T19:40:15.890Z,3.20
2019-01-18T19:45:45.285Z,3.47
2019-01-18T19:51:16.288Z,2.63
2019-01-18T19:56:35.122Z,3.03
2019-01-18T20:02:03.715Z,3.53
2019-01-18T20:07:29.823Z,4.03
2019-01-18T20:13:12.695Z,4.20
2019-01-18T20:18:43.394Z,4.50
2019-01-18T20:24:17.632Z,4.17
2019-01-18T20:29:58.387Z,4.25
2019-01-18T20:35:49.016Z,4.70
2019-01-18T20:41:31.489Z,4.13
2019-01-18T20:47:12.714Z,4.90
2019-01-18T20:52:54.996Z,4.57
2019-01-18T20:59:15.011Z,4.93
2019-01-18T21:04:55.425Z,4.62
2019-01-18T21:10:39.207Z,4.87
2019-01-18T21:16:13.813Z,4.60
2019-01-18T21:21:47.682Z,4.90
2019-01-18T21:27:50.242Z,5.27
2019-01-18T21:33:48.593Z,4.83
2019-01-18T21:39:29.859Z,5.77
2019-01-18T21:45:11.537Z,5.03
2019-01-18T21:50:52.203Z,4.93
2019-01-18T21:56:29.301Z,4.80
2019-01-18T22:02:30.243Z,4.27
2019-01-18T22:07:57.615Z,4.03
2019-01-18T22:13:24.009Z,4.20
2019-01-18T22:19:05.866Z,4.17
2019-01-18T22:24:57.305Z,3.60
2019-01-18T22:30:34.546Z,3.83
2019-01-18T22:36:30.914Z,3.50
2019-01-18T22:42:24.759Z,4.00
2019-01-18T22:48:19.327Z,3.00
2019-01-18T22:53:55.919Z,3.33
2019-01-18T22:59:28.898Z,4.20
2019-01-18T23:04:57.669Z,3.40
2019-01-18T23:10:32.039Z,3.03
2019-01-18T23:16:16.693Z,3.20
2019-01-18T23:21:55.826Z,3.10
2019-01-18T23:27:28.857Z,3.33
2019-01-18T23:33:12.004Z,3.20
2019-01-18T23:38:56.755Z,3.33
2019-01-18T23:44:26.192Z,3.10
2019-01-18T23:49:55.509Z,3.30
2019-01-18T23:55:49.949Z,3.60
